createdAt,value
2023-01-07T00:01:41.499Z,1.20
2023-01-07T00:04:12.678Z,1.00
2023-01-07T00:06:41.459Z,1.13
2023-01-07T00:09:11.423Z,1.20
2023-01-07T00:11:39.676Z,1.10
2023-01-07T00:14:08.937Z,1.30
2023-01-07T00:16:36.528Z,1.00
2023-01-07T00:19:04.583Z,1.00
2023-01-07T00:21:31.307Z,1.03
2023-01-07T00:24:00.434Z,1.10
2023-01-07T00:26:30.299Z,0.90
2023-01-07T00:28:57.257Z,1.00
2023-01-07T00:31:26.402Z,1.07
2023-01-07T00:33:56.608Z,0.93
2023-01-07T00:36:25.053Z,1.20
2023-01-07T00:39:04.676Z,1.27
2023-01-07T00:41:31.186Z,1.20
2023-01-07T00:43:57.613Z,1.10
2023-01-07T00:46:25.149Z,0.90
2023-01-07T00:48:51.622Z,0.97
2023-01-07T00:51:19.014Z,0.90
2023-01-07T00:53:46.398Z,1.07
2023-01-07T00:56:14.612Z,1.03
2023-01-07T00:58:41.915Z,1.20
2023-01-07T01:01:10.549Z,1.53
2023-01-07T01:03:37.870Z,1.00
2023-01-07T01:06:07.113Z,1.00
2023-01-07T01:08:33.587Z,0.90
2023-01-07T01:11:08.381Z,1.10
2023-01-07T01:13:36.047Z,1.17
2023-01-07T01:16:09.137Z,1.30
2023-01-07T01:18:36.058Z,1.10
2023-01-07T01:21:04.910Z,1.00
2023-01-07T01:23:31.432Z,1.10
2023-01-07T01:26:09.844Z,1.17
2023-01-07T01:28:36.433Z,1.70
2023-01-07T01:31:05.732Z,1.20
2023-01-07T01:33:42.510Z,1.60
2023-01-07T01:36:12.906Z,1.80
2023-01-07T01:38:40.153Z,1.00
2023-01-07T01:41:07.433Z,1.27
2023-01-07T01:43:41.856Z,0.90
2023-01-07T01:46:33.978Z,1.07
2023-01-07T01:49:27.560Z,1.30
2023-01-07T01:51:59.052Z,2.30
2023-01-07T01:54:26.093Z,1.67
2023-01-07T01:56:57.760Z,15.80
2023-01-07T01:59:28.704Z,5.33
2023-01-07T02:01:57.308Z,12.33
2023-01-07T02:04:26.874Z,9.23
2023-01-07T02:07:02.120Z,3.37
2023-01-07T02:09:29.908Z,3.73
2023-01-07T02:12:14.645Z,4.13
2023-01-07T02:14:59.611Z,4.90
2023-01-07T02:17:52.195Z,4.93
2023-01-07T02:20:35.023Z,2.10
2023-01-07T02:23:28.433Z,1.40
2023-01-07T02:26:19.458Z,1.70
2023-01-07T02:28:54.957Z,1.30
2023-01-07T02:31:55.646Z,1.40
2023-01-07T02:34:51.062Z,1.30
2023-01-07T02:37:27.966Z,1.17
2023-01-07T02:39:57.451Z,1.10
2023-01-07T02:42:58.106Z,1.63
2023-01-07T02:45:30.764Z,1.37
2023-01-07T02:48:02.151Z,1.13
2023-01-07T02:50:28.718Z,0.90
2023-01-07T02:52:55.236Z,1.17
2023-01-07T02:55:47.926Z,1.10
2023-01-07T02:58:36.665Z,1.00
2023-01-07T03:01:23.742Z,0.60
2023-01-07T03:04:03.905Z,0.70
2023-01-07T03:06:48.839Z,0.57
2023-01-07T03:09:37.822Z,0.80
2023-01-07T03:12:25.950Z,0.87
2023-01-07T03:15:11.241Z,0.87
2023-01-07T03:18:06.175Z,0.80
2023-01-07T03:20:37.106Z,0.90
2023-01-07T03:23:07.725Z,0.60
2023-01-07T03:25:40.286Z,0.70
2023-01-07T03:28:09.816Z,0.73
2023-01-07T03:30:38.568Z,0.73
2023-01-07T03:33:11.756Z,0.70
2023-01-07T03:35:42.809Z,0.60
2023-01-07T03:38:10.718Z,0.60
2023-01-07T03:40:37.822Z,0.70
2023-01-07T03:43:05.366Z,0.70
2023-01-07T03:45:32.018Z,0.53
2023-01-07T03:47:59.695Z,0.70
2023-01-07T03:50:35.084Z,0.60
2023-01-07T03:53:01.746Z,0.80
2023-01-07T03:55:29.693Z,0.80
2023-01-07T03:57:57.374Z,0.73
2023-01-07T04:00:25.339Z,0.70
2023-01-07T04:02:58.764Z,0.90
2023-01-07T04:05:33.251Z,0.70
2023-01-07T04:08:00.268Z,0.70
2023-01-07T04:10:31.505Z,0.80
2023-01-07T04:12:57.958Z,0.67
2023-01-07T04:15:24.855Z,0.80
2023-01-07T04:17:51.313Z,0.60
2023-01-07T04:20:18.184Z,0.50
2023-01-07T04:22:44.713Z,0.70
2023-01-07T04:25:11.147Z,0.60
2023-01-07T04:27:38.465Z,0.80
2023-01-07T04:30:05.446Z,0.63
2023-01-07T04:32:34.195Z,0.80
2023-01-07T04:35:00.905Z,0.60
2023-01-07T04:37:29.006Z,0.70
2023-01-07T04:39:55.896Z,0.70
2023-01-07T04:42:22.905Z,0.60
2023-01-07T04:44:49.691Z,0.70
2023-01-07T04:47:16.148Z,1.47
2023-01-07T04:49:42.582Z,1.03
2023-01-07T04:52:09.105Z,1.00
2023-01-07T04:54:36.572Z,1.20
2023-01-07T04:57:03.129Z,0.77
2023-01-07T04:59:29.854Z,1.00
2023-01-07T05:01:57.006Z,1.00
2023-01-07T05:04:23.617Z,0.77
2023-01-07T05:06:50.373Z,0.80
2023-01-07T05:09:17.643Z,0.73
2023-01-07T05:11:44.231Z,0.93
2023-01-07T05:14:13.086Z,0.90
2023-01-07T05:16:40.092Z,1.07
2023-01-07T05:19:11.239Z,0.90
2023-01-07T05:21:42.254Z,0.90
2023-01-07T05:24:08.911Z,0.60
2023-01-07T05:26:36.170Z,0.60
2023-01-07T05:29:03.511Z,0.67
2023-01-07T05:31:31.314Z,0.60
2023-01-07T05:33:57.849Z,0.70
2023-01-07T05:36:24.856Z,0.40
2023-01-07T05:38:51.329Z,0.50
2023-01-07T05:41:17.880Z,0.47
2023-01-07T05:43:44.743Z,0.60
2023-01-07T05:46:11.207Z,0.50
2023-01-07T05:48:37.644Z,0.53
2023-01-07T05:51:04.372Z,0.63
2023-01-07T05:53:30.776Z,0.70
2023-01-07T05:55:58.656Z,0.60
2023-01-07T05:58:25.807Z,0.80
2023-01-07T06:00:52.547Z,0.90
2023-01-07T06:03:19.627Z,0.57
2023-01-07T06:05:46.101Z,0.77
2023-01-07T06:08:12.587Z,1.00
2023-01-07T06:10:39.691Z,0.70
2023-01-07T06:13:06.220Z,0.60
2023-01-07T06:15:32.681Z,0.60
2023-01-07T06:17:59.172Z,0.90
2023-01-07T06:20:25.676Z,0.70
2023-01-07T06:22:52.138Z,0.77
2023-01-07T06:25:18.652Z,0.60
2023-01-07T06:27:45.044Z,0.70
2023-01-07T06:30:12.354Z,2.13
2023-01-07T06:32:40.653Z,2.17
2023-01-07T06:35:09.375Z,1.23
2023-01-07T06:37:35.808Z,1.17
2023-01-07T06:40:02.323Z,0.90
2023-01-07T06:42:28.795Z,0.90
2023-01-07T06:44:55.389Z,0.80
2023-01-07T06:47:21.886Z,1.10
2023-01-07T06:49:48.276Z,0.83
2023-01-07T06:52:14.724Z,1.50
2023-01-07T06:54:41.127Z,1.80
2023-01-07T06:57:07.548Z,1.93
2023-01-07T06:59:33.946Z,1.33
2023-01-07T07:02:00.455Z,0.83
2023-01-07T07:04:26.963Z,0.87
2023-01-07T07:06:53.469Z,1.10
2023-01-07T07:09:19.852Z,0.73
2023-01-07T07:11:46.275Z,0.70
2023-01-07T07:14:12.891Z,0.70
2023-01-07T07:16:39.310Z,0.80
2023-01-07T07:19:05.741Z,0.67
2023-01-07T07:21:32.142Z,0.70
2023-01-07T07:24:00.522Z,0.80
2023-01-07T07:26:26.999Z,0.77
2023-01-07T07:28:53.442Z,0.80
2023-01-07T07:31:19.967Z,0.70
2023-01-07T07:33:46.428Z,1.00
2023-01-07T07:36:12.855Z,1.00
2023-01-07T07:38:39.371Z,1.40
2023-01-07T07:41:05.806Z,1.80
2023-01-07T07:43:35.173Z,1.97
2023-01-07T07:46:01.914Z,1.77
2023-01-07T07:48:28.357Z,1.77
2023-01-07T07:50:54.747Z,1.60
2023-01-07T07:53:21.541Z,1.00
2023-01-07T07:55:48.150Z,1.13
2023-01-07T07:58:14.746Z,1.27
2023-01-07T08:00:41.347Z,1.30
2023-01-07T08:03:08.017Z,1.40
2023-01-07T08:05:34.493Z,1.03
2023-01-07T08:08:01.003Z,1.20
2023-01-07T08:10:29.011Z,0.60
2023-01-07T08:12:55.480Z,1.10
2023-01-07T08:15:21.863Z,0.80
2023-01-07T08:17:48.375Z,1.10
2023-01-07T08:20:14.790Z,1.03
2023-01-07T08:22:41.272Z,0.63
2023-01-07T08:25:08.021Z,0.70
2023-01-07T08:27:34.422Z,0.73
2023-01-07T08:30:00.862Z,0.97
2023-01-07T08:32:27.336Z,0.80
2023-01-07T08:34:53.731Z,0.73
2023-01-07T08:37:20.157Z,0.80
2023-01-07T08:39:46.575Z,1.10
2023-01-07T08:42:12.951Z,1.00
2023-01-07T08:44:39.426Z,0.97
2023-01-07T08:47:05.898Z,0.63
2023-01-07T08:49:32.298Z,1.40
2023-01-07T08:51:58.714Z,0.80
2023-01-07T08:54:25.786Z,1.10
2023-01-07T08:56:52.188Z,1.10
2023-01-07T08:59:18.662Z,1.00
2023-01-07T09:01:45.324Z,1.10
2023-01-07T09:04:11.875Z,2.00
2023-01-07T09:06:38.316Z,1.57
2023-01-07T09:09:05.024Z,4.57
2023-01-07T09:11:31.456Z,1.40
2023-01-07T09:13:57.887Z,1.63
2023-01-07T09:16:24.396Z,1.60
2023-01-07T09:18:50.974Z,1.70
2023-01-07T09:21:17.390Z,1.40
2023-01-07T09:23:43.779Z,1.50
2023-01-07T09:26:10.254Z,0.90
2023-01-07T09:28:36.730Z,1.60
2023-01-07T09:31:04.223Z,1.40
2023-01-07T09:33:30.850Z,1.80
2023-01-07T09:35:57.255Z,1.40
2023-01-07T09:38:23.736Z,1.40
2023-01-07T09:40:50.767Z,1.20
2023-01-07T09:43:58.716Z,1.20
2023-01-07T09:46:17.356Z,1.17
2023-01-07T09:48:47.929Z,1.27
2023-01-07T09:51:37.332Z,1.20
2023-01-07T09:54:08.647Z,1.87
2023-01-07T09:56:36.896Z,1.13
2023-01-07T09:59:05.506Z,1.20
2023-01-07T10:01:42.286Z,1.33
2023-01-07T10:04:34.256Z,1.00
2023-01-07T10:07:06.662Z,1.10
2023-01-07T10:09:51.856Z,1.00
2023-01-07T10:12:42.061Z,1.00
2023-01-07T10:15:36.055Z,1.03
2023-01-07T10:18:33.631Z,0.97
2023-01-07T10:21:26.171Z,1.00
2023-01-07T10:24:03.071Z,1.10
2023-01-07T10:26:36.120Z,0.90
2023-01-07T10:29:11.767Z,1.57
2023-01-07T10:31:39.220Z,1.13
2023-01-07T10:34:14.764Z,1.20
2023-01-07T10:37:08.439Z,1.40
2023-01-07T10:39:52.362Z,1.43
2023-01-07T10:42:33.469Z,1.20
2023-01-07T10:45:24.879Z,1.30
2023-01-07T10:48:12.830Z,1.20
2023-01-07T10:50:53.259Z,1.30
2023-01-07T10:53:33.575Z,1.87
2023-01-07T10:56:28.448Z,2.00
2023-01-07T10:58:54.953Z,1.47
2023-01-07T11:01:44.224Z,1.27
2023-01-07T11:04:16.027Z,1.10
2023-01-07T11:06:52.385Z,1.90
2023-01-07T11:09:31.806Z,1.70
2023-01-07T11:12:02.927Z,1.70
2023-01-07T11:14:34.433Z,1.83
2023-01-07T11:17:10.715Z,1.47
2023-01-07T11:19:46.379Z,1.67
2023-01-07T11:22:30.784Z,2.53
2023-01-07T11:24:58.917Z,5.00
2023-01-07T11:27:28.540Z,3.37
2023-01-07T11:30:23.270Z,3.67
2023-01-07T11:33:00.316Z,2.20
2023-01-07T11:35:28.902Z,2.07
2023-01-07T11:37:56.930Z,2.10
2023-01-07T11:40:26.125Z,1.97
2023-01-07T11:42:52.634Z,3.13
2023-01-07T11:45:25.039Z,2.60
2023-01-07T11:48:08.335Z,2.00
2023-01-07T11:50:42.624Z,2.20
2023-01-07T11:53:19.884Z,1.77
2023-01-07T11:56:01.871Z,2.67
2023-01-07T11:58:32.503Z,3.30
2023-01-07T12:01:23.641Z,3.03
2023-01-07T12:03:52.934Z,1.80
2023-01-07T12:06:25.207Z,6.27
2023-01-07T12:09:29.445Z,10.97
2023-01-07T12:11:59.722Z,4.40
2023-01-07T12:14:31.269Z,6.63
2023-01-07T12:17:15.233Z,3.40
2023-01-07T12:19:58.944Z,2.47
2023-01-07T12:23:05.970Z,1.87
2023-01-07T12:25:35.169Z,2.77
2023-01-07T12:28:12.953Z,2.10
2023-01-07T12:31:33.061Z,2.03
2023-01-07T12:34:07.633Z,2.10
2023-01-07T12:36:43.521Z,2.17
2023-01-07T12:39:18.113Z,2.20
2023-01-07T12:41:54.371Z,2.33
2023-01-07T12:44:22.028Z,2.70
2023-01-07T12:47:30.563Z,3.67
2023-01-07T12:50:13.067Z,2.50
2023-01-07T12:52:46.619Z,2.40
2023-01-07T12:55:21.411Z,2.10
2023-01-07T12:58:13.725Z,2.10
2023-01-07T13:00:51.160Z,1.77
2023-01-07T13:03:39.517Z,2.40
2023-01-07T13:06:36.896Z,2.10
2023-01-07T13:09:27.061Z,2.10
2023-01-07T13:12:42.344Z,2.30
2023-01-07T13:15:20.616Z,3.00
2023-01-07T13:17:49.561Z,2.10
2023-01-07T13:20:20.669Z,2.10
2023-01-07T13:22:54.602Z,2.07
2023-01-07T13:25:44.529Z,2.30
2023-01-07T13:28:49.217Z,2.10
2023-01-07T13:31:21.700Z,2.73
2023-01-07T13:34:33.952Z,4.10
2023-01-07T13:37:12.345Z,2.87
2023-01-07T13:39:44.300Z,2.03
2023-01-07T13:42:27.246Z,2.40
2023-01-07T13:45:07.980Z,2.40
2023-01-07T13:47:43.176Z,2.57
2023-01-07T13:50:20.639Z,2.50
2023-01-07T13:52:57.178Z,4.53
2023-01-07T13:55:38.719Z,2.90
2023-01-07T13:58:30.193Z,4.40
2023-01-07T14:01:35.464Z,3.00
2023-01-07T14:04:06.180Z,2.80
2023-01-07T14:06:43.791Z,4.00
2023-01-07T14:09:25.730Z,3.93
2023-01-07T14:12:23.024Z,2.53
2023-01-07T14:15:19.062Z,3.47
2023-01-07T14:18:07.173Z,3.20
2023-01-07T14:20:39.850Z,2.93
2023-01-07T14:23:33.090Z,3.20
2023-01-07T14:26:20.017Z,2.97
2023-01-07T14:29:05.116Z,2.70
2023-01-07T14:31:32.011Z,2.50
2023-01-07T14:34:04.773Z,2.37
2023-01-07T14:37:04.784Z,2.30
2023-01-07T14:39:34.468Z,2.80
2023-01-07T14:42:19.147Z,2.67
2023-01-07T14:44:50.927Z,2.67
2023-01-07T14:47:43.709Z,2.53
2023-01-07T14:51:07.670Z,2.40
2023-01-07T14:53:57.072Z,3.50
2023-01-07T14:56:55.469Z,2.67
2023-01-07T14:59:34.392Z,2.20
2023-01-07T15:02:10.028Z,3.33
2023-01-07T15:04:55.085Z,2.40
2023-01-07T15:07:25.284Z,2.30
2023-01-07T15:10:16.143Z,3.33
2023-01-07T15:13:13.190Z,2.90
2023-01-07T15:16:02.651Z,3.30
2023-01-07T15:18:32.072Z,3.43
2023-01-07T15:21:33.083Z,3.20
2023-01-07T15:24:14.327Z,2.47
2023-01-07T15:26:57.656Z,3.80
2023-01-07T15:30:13.099Z,3.37
2023-01-07T15:33:05.551Z,4.70
2023-01-07T15:35:34.605Z,4.20
2023-01-07T15:38:21.108Z,5.20
2023-01-07T15:40:47.709Z,4.10
2023-01-07T15:43:23.320Z,3.97
2023-01-07T15:46:02.218Z,3.47
2023-01-07T15:48:28.847Z,2.90
2023-01-07T15:50:55.625Z,3.20
2023-01-07T15:53:25.293Z,4.63
2023-01-07T15:56:20.556Z,3.20
2023-01-07T15:58:50.958Z,3.70
2023-01-07T16:01:20.256Z,3.00
2023-01-07T16:03:49.651Z,2.80
2023-01-07T16:06:31.424Z,3.50
2023-01-07T16:08:58.671Z,3.90
2023-01-07T16:11:28.529Z,3.97
2023-01-07T16:14:02.501Z,3.97
2023-01-07T16:16:31.851Z,4.40
2023-01-07T16:19:00.889Z,4.73
2023-01-07T16:21:33.191Z,4.50
2023-01-07T16:23:59.688Z,4.07
2023-01-07T16:26:38.903Z,4.17
2023-01-07T16:29:09.911Z,3.40
2023-01-07T16:31:37.749Z,3.17
2023-01-07T16:34:37.236Z,3.60
2023-01-07T16:37:06.761Z,4.03
2023-01-07T16:39:43.375Z,4.13
2023-01-07T16:42:22.647Z,3.60
2023-01-07T16:44:55.132Z,4.33
2023-01-07T16:47:24.275Z,4.30
2023-01-07T16:49:52.618Z,4.63
2023-01-07T16:52:32.750Z,5.13
2023-01-07T16:54:59.748Z,4.50
2023-01-07T16:57:42.066Z,3.20
2023-01-07T17:00:17.840Z,4.10
2023-01-07T17:03:02.438Z,3.73
2023-01-07T17:05:33.606Z,3.60
2023-01-07T17:08:04.960Z,4.17
2023-01-07T17:10:38.742Z,6.17
2023-01-07T17:13:14.248Z,5.03
2023-01-07T17:15:42.045Z,4.37
2023-01-07T17:18:11.419Z,4.77
2023-01-07T17:20:52.456Z,5.27
2023-01-07T17:23:24.863Z,4.40
2023-01-07T17:26:17.740Z,4.90
2023-01-07T17:28:48.695Z,14.57
2023-01-07T17:31:15.672Z,8.17
2023-01-07T17:33:42.939Z,7.63
2023-01-07T17:36:27.672Z,7.90
2023-01-07T17:38:54.106Z,6.53
2023-01-07T17:41:41.376Z,7.03
2023-01-07T17:44:12.268Z,6.63
2023-01-07T17:46:39.491Z,5.30
2023-01-07T17:49:06.006Z,4.90
2023-01-07T17:51:38.442Z,4.60
2023-01-07T17:54:06.695Z,6.40
2023-01-07T17:56:33.900Z,5.53
2023-01-07T17:59:00.534Z,5.47
2023-01-07T18:01:27.184Z,7.10
2023-01-07T18:03:54.293Z,8.83
2023-01-07T18:06:22.814Z,9.57
2023-01-07T18:08:50.268Z,8.80
2023-01-07T18:11:38.012Z,7.40
2023-01-07T18:14:05.203Z,7.13
2023-01-07T18:16:32.014Z,5.33
2023-01-07T18:18:58.494Z,3.93
2023-01-07T18:21:25.249Z,4.00
2023-01-07T18:23:51.993Z,3.77
2023-01-07T18:26:18.810Z,4.90
2023-01-07T18:28:47.098Z,12.93
2023-01-07T18:31:13.844Z,5.40
2023-01-07T18:33:40.254Z,3.70
2023-01-07T18:36:07.163Z,3.53
2023-01-07T18:38:33.922Z,3.63
2023-01-07T18:41:00.329Z,4.07
2023-01-07T18:43:26.763Z,5.40
2023-01-07T18:45:53.278Z,5.57
2023-01-07T18:48:20.129Z,4.57
2023-01-07T18:50:49.198Z,5.03
2023-01-07T18:53:17.716Z,4.90
2023-01-07T18:55:45.351Z,7.77
2023-01-07T18:58:16.222Z,7.90
2023-01-07T19:00:42.836Z,8.70
2023-01-07T19:03:10.632Z,9.80
2023-01-07T19:05:39.889Z,5.23
2023-01-07T19:08:06.422Z,12.23
2023-01-07T19:10:32.957Z,7.10
2023-01-07T19:12:59.417Z,6.30
2023-01-07T19:15:25.821Z,7.00
2023-01-07T19:17:52.232Z,4.60
2023-01-07T19:20:19.019Z,4.00
2023-01-07T19:22:45.516Z,4.40
2023-01-07T19:25:12.020Z,3.90
2023-01-07T19:27:38.492Z,3.77
2023-01-07T19:30:05.799Z,3.43
2023-01-07T19:32:32.453Z,3.27
2023-01-07T19:34:59.083Z,3.13
2023-01-07T19:37:25.596Z,3.53
2023-01-07T19:39:52.054Z,3.10
2023-01-07T19:42:18.570Z,3.33
2023-01-07T19:44:45.091Z,3.63
2023-01-07T19:47:11.667Z,3.73
2023-01-07T19:49:38.643Z,3.23
2023-01-07T19:52:05.226Z,3.87
2023-01-07T19:54:31.688Z,3.40
2023-01-07T19:56:58.082Z,2.73
2023-01-07T19:59:25.424Z,2.87
2023-01-07T20:01:53.683Z,3.10
2023-01-07T20:04:20.350Z,2.80
2023-01-07T20:06:47.716Z,2.60
2023-01-07T20:09:14.190Z,3.67
2023-01-07T20:11:42.899Z,4.40
2023-01-07T20:14:10.607Z,3.67
2023-01-07T20:16:39.392Z,2.90
2023-01-07T20:19:06.275Z,3.13
2023-01-07T20:21:33.282Z,3.27
2023-01-07T20:23:59.853Z,2.80
2023-01-07T20:26:31.583Z,2.93
2023-01-07T20:28:59.993Z,3.03
2023-01-07T20:31:28.247Z,3.13
2023-01-07T20:33:57.518Z,2.90
2023-01-07T20:36:27.590Z,3.20
2023-01-07T20:38:54.624Z,6.03
2023-01-07T20:41:26.703Z,3.27
2023-01-07T20:43:58.374Z,3.37
2023-01-07T20:46:26.680Z,3.10
2023-01-07T20:48:53.233Z,3.30
2023-01-07T20:51:19.749Z,3.17
2023-01-07T20:53:47.004Z,3.07
2023-01-07T20:56:16.023Z,3.23
2023-01-07T20:58:42.514Z,3.93
2023-01-07T21:01:12.303Z,3.93
2023-01-07T21:03:39.814Z,3.57
2023-01-07T21:06:09.731Z,4.10
2023-01-07T21:08:36.991Z,3.87
2023-01-07T21:11:03.807Z,6.20
2023-01-07T21:13:30.324Z,7.27
2023-01-07T21:16:02.928Z,5.30
2023-01-07T21:18:29.787Z,6.57
2023-01-07T21:20:56.285Z,4.27
2023-01-07T21:23:22.778Z,6.47
2023-01-07T21:25:49.796Z,3.60
2023-01-07T21:28:16.330Z,4.83
2023-01-07T21:30:42.939Z,5.37
2023-01-07T21:33:09.477Z,4.50
2023-01-07T21:35:39.852Z,3.43
2023-01-07T21:38:06.507Z,2.90
2023-01-07T21:40:33.002Z,3.97
2023-01-07T21:42:59.483Z,4.43
2023-01-07T21:45:26.002Z,2.80
2023-01-07T21:47:52.444Z,2.60
2023-01-07T21:50:18.930Z,4.10
2023-01-07T21:52:45.459Z,2.70
2023-01-07T21:55:12.019Z,2.70
2023-01-07T21:57:38.578Z,3.50
2023-01-07T22:00:07.033Z,3.50
2023-01-07T22:02:38.738Z,3.20
2023-01-07T22:05:05.728Z,3.00
2023-01-07T22:07:32.194Z,2.83
2023-01-07T22:09:58.620Z,3.73
2023-01-07T22:12:25.707Z,3.37
2023-01-07T22:14:52.138Z,3.90
2023-01-07T22:17:18.843Z,3.17
2023-01-07T22:19:45.315Z,3.60
2023-01-07T22:22:11.780Z,3.73
2023-01-07T22:24:38.182Z,3.30
2023-01-07T22:27:04.621Z,3.80
2023-01-07T22:29:32.221Z,4.47
2023-01-07T22:31:58.965Z,4.37
2023-01-07T22:34:25.442Z,3.30
2023-01-07T22:37:26.630Z,3.90
2023-01-07T22:39:58.345Z,4.60
2023-01-07T22:42:30.591Z,4.03
2023-01-07T22:45:02.531Z,3.53
2023-01-07T22:47:32.920Z,3.57
2023-01-07T22:50:02.851Z,3.40
2023-01-07T22:52:29.355Z,3.33
2023-01-07T22:54:56.268Z,3.13
2023-01-07T22:57:22.932Z,3.03
2023-01-07T22:59:49.368Z,3.50
2023-01-07T23:02:15.796Z,3.67
2023-01-07T23:04:42.255Z,3.27
2023-01-07T23:07:08.761Z,3.87
2023-01-07T23:09:35.295Z,3.50
2023-01-07T23:12:01.789Z,3.00
2023-01-07T23:14:29.624Z,3.23
2023-01-07T23:16:56.623Z,3.37
2023-01-07T23:19:23.128Z,4.10
2023-01-07T23:21:51.997Z,3.20
2023-01-07T23:24:19.118Z,3.07
2023-01-07T23:26:47.358Z,3.07
2023-01-07T23:29:14.207Z,3.80
2023-01-07T23:31:40.992Z,4.63
2023-01-07T23:34:07.959Z,2.70
2023-01-07T23:36:38.496Z,2.90
2023-01-07T23:39:05.897Z,3.00
2023-01-07T23:41:32.800Z,3.20
2023-01-07T23:43:59.207Z,2.70
2023-01-07T23:46:25.777Z,3.33
2023-01-07T23:48:52.221Z,3.37
2023-01-07T23:51:20.702Z,2.93
2023-01-07T23:53:47.706Z,3.60
2023-01-07T23:56:17.236Z,3.10
2023-01-07T23:58:43.676Z,2.70
